sensor_id;sensor_type;location;lat;lon;timestamp;temperature;humidity
18880;DHT22;9572;52.378;13.404;2023-04-09T00:02:15;3.70;99.90
18880;DHT22;9572;52.378;13.404;2023-04-09T00:04:43;3.60;99.90
18880;DHT22;9572;52.378;13.404;2023-04-09T00:07:10;3.60;99.90
18880;DHT22;9572;52.378;13.404;2023-04-09T00:09:37;3.60;99.90
18880;DHT22;9572;52.378;13.404;2023-04-09T00:12:04;3.60;99.90
18880;DHT22;9572;52.378;13.404;2023-04-09T00:14:30;3.50;99.90
18880;DHT22;9572;52.378;13.404;2023-04-09T00:16:57;3.60;99.90
18880;DHT22;9572;52.378;13.404;2023-04-09T00:19:24;3.50;99.90
18880;DHT22;9572;52.378;13.404;2023-04-09T00:21:52;3.50;99.90
18880;DHT22;9572;52.378;13.404;2023-04-09T00:24:19;3.50;99.90
18880;DHT22;9572;52.378;13.404;2023-04-09T00:26:46;3.40;99.90
18880;DHT22;9572;52.378;13.404;2023-04-09T00:29:13;3.30;99.90
18880;DHT22;9572;52.378;13.404;2023-04-09T00:31:40;3.30;99.90
18880;DHT22;9572;52.378;13.404;2023-04-09T00:34:07;3.30;99.90
18880;DHT22;9572;52.378;13.404;2023-04-09T00:36:34;3.20;99.90
18880;DHT22;9572;52.378;13.404;2023-04-09T00:39:02;3.20;99.90
18880;DHT22;9572;52.378;13.404;2023-04-09T00:41:29;3.20;99.90
18880;DHT22;9572;52.378;13.404;2023-04-09T00:43:56;3.20;99.90
18880;DHT22;9572;52.378;13.404;2023-04-09T00:46:23;3.20;99.90
18880;DHT22;9572;52.378;13.404;2023-04-09T00:48:50;3.20;99.90
18880;DHT22;9572;52.378;13.404;2023-04-09T00:51:17;3.20;99.90
18880;DHT22;9572;52.378;13.404;2023-04-09T00:53:45;3.20;99.90
18880;DHT22;9572;52.378;13.404;2023-04-09T00:56:14;3.10;99.90
18880;DHT22;9572;52.378;13.404;2023-04-09T00:58:42;3.20;99.90
18880;DHT22;9572;52.378;13.404;2023-04-09T01:01:09;3.10;99.90
18880;DHT22;9572;52.378;13.404;2023-04-09T01:03:36;3.10;99.90
18880;DHT22;9572;52.378;13.404;2023-04-09T01:06:08;3.00;99.90
18880;DHT22;9572;52.378;13.404;2023-04-09T01:08:44;2.90;99.90
18880;DHT22;9572;52.378;13.404;2023-04-09T01:11:23;2.90;99.90
18880;DHT22;9572;52.378;13.404;2023-04-09T01:14:00;2.80;99.90
18880;DHT22;9572;52.378;13.404;2023-04-09T01:16:32;2.80;99.90
18880;DHT22;9572;52.378;13.404;2023-04-09T01:19:09;2.70;99.90
18880;DHT22;9572;52.378;13.404;2023-04-09T01:21:43;2.70;99.90
18880;DHT22;9572;52.378;13.404;2023-04-09T01:24:19;2.70;99.90
18880;DHT22;9572;52.378;13.404;2023-04-09T01:26:57;2.60;99.90
18880;DHT22;9572;52.378;13.404;2023-04-09T01:29:31;2.60;99.90
18880;DHT22;9572;52.378;13.404;2023-04-09T01:31:59;2.60;99.90
18880;DHT22;9572;52.378;13.404;2023-04-09T01:34:28;2.60;99.90
18880;DHT22;9572;52.378;13.404;2023-04-09T01:36:58;2.60;99.90
18880;DHT22;9572;52.378;13.404;2023-04-09T01:39:26;2.60;99.90
18880;DHT22;9572;52.378;13.404;2023-04-09T01:41:54;2.60;99.90
18880;DHT22;9572;52.378;13.404;2023-04-09T01:44:23;2.60;99.90
18880;DHT22;9572;52.378;13.404;2023-04-09T01:46:51;2.60;99.90
18880;DHT22;9572;52.378;13.404;2023-04-09T01:49:20;2.50;99.90
18880;DHT22;9572;52.378;13.404;2023-04-09T01:51:47;2.50;99.90
18880;DHT22;9572;52.378;13.404;2023-04-09T01:54:15;2.50;99.90
18880;DHT22;9572;52.378;13.404;2023-04-09T01:56:42;2.50;99.90
18880;DHT22;9572;52.378;13.404;2023-04-09T01:59:09;2.50;99.90
18880;DHT22;9572;52.378;13.404;2023-04-09T02:01:40;2.40;99.90
18880;DHT22;9572;52.378;13.404;2023-04-09T02:04:16;2.40;99.90
18880;DHT22;9572;52.378;13.404;2023-04-09T02:06:50;2.30;99.90
18880;DHT22;9572;52.378;13.404;2023-04-09T02:09:20;2.30;99.90
18880;DHT22;9572;52.378;13.404;2023-04-09T02:11:49;2.20;99.90
18880;DHT22;9572;52.378;13.404;2023-04-09T02:14:17;2.20;99.90
18880;DHT22;9572;52.378;13.404;2023-04-09T02:16:46;2.20;99.90
18880;DHT22;9572;52.378;13.404;2023-04-09T02:19:14;2.20;99.90
18880;DHT22;9572;52.378;13.404;2023-04-09T02:21:41;2.20;99.90
18880;DHT22;9572;52.378;13.404;2023-04-09T02:24:08;2.20;99.90
18880;DHT22;9572;52.378;13.404;2023-04-09T02:26:35;2.10;99.90
18880;DHT22;9572;52.378;13.404;2023-04-09T02:29:02;2.10;99.90
18880;DHT22;9572;52.378;13.404;2023-04-09T02:31:29;2.10;99.90
18880;DHT22;9572;52.378;13.404;2023-04-09T02:33:56;2.00;99.90
18880;DHT22;9572;52.378;13.404;2023-04-09T02:36:24;2.00;99.90
18880;DHT22;9572;52.378;13.404;2023-04-09T02:38:52;2.00;99.90
18880;DHT22;9572;52.378;13.404;2023-04-09T02:41:19;2.00;99.90
18880;DHT22;9572;52.378;13.404;2023-04-09T02:43:45;2.00;99.90
18880;DHT22;9572;52.378;13.404;2023-04-09T02:46:12;2.00;99.90
18880;DHT22;9572;52.378;13.404;2023-04-09T02:48:39;1.90;99.90
18880;DHT22;9572;52.378;13.404;2023-04-09T02:51:06;1.90;99.90
18880;DHT22;9572;52.378;13.404;2023-04-09T02:53:35;1.90;99.90
18880;DHT22;9572;52.378;13.404;2023-04-09T02:56:04;1.90;99.90
18880;DHT22;9572;52.378;13.404;2023-04-09T02:58:31;1.90;99.90
18880;DHT22;9572;52.378;13.404;2023-04-09T03:00:57;1.90;99.90
18880;DHT22;9572;52.378;13.404;2023-04-09T03:03:24;1.80;99.90
18880;DHT22;9572;52.378;13.404;2023-04-09T03:05:51;1.80;99.90
18880;DHT22;9572;52.378;13.404;2023-04-09T03:08:18;1.70;99.90
18880;DHT22;9572;52.378;13.404;2023-04-09T03:10:46;1.70;99.90
18880;DHT22;9572;52.378;13.404;2023-04-09T03:13:13;1.70;99.90
18880;DHT22;9572;52.378;13.404;2023-04-09T03:15:40;1.70;99.90
18880;DHT22;9572;52.378;13.404;2023-04-09T03:18:07;1.70;99.90
18880;DHT22;9572;52.378;13.404;2023-04-09T03:20:36;1.70;99.90
18880;DHT22;9572;52.378;13.404;2023-04-09T03:23:03;1.70;99.90
18880;DHT22;9572;52.378;13.404;2023-04-09T03:25:30;1.70;99.90
18880;DHT22;9572;52.378;13.404;2023-04-09T03:27:58;1.70;99.90
18880;DHT22;9572;52.378;13.404;2023-04-09T03:30:25;1.70;99.90
18880;DHT22;9572;52.378;13.404;2023-04-09T03:32:52;1.70;99.90
18880;DHT22;9572;52.378;13.404;2023-04-09T03:35:19;1.70;99.90
18880;DHT22;9572;52.378;13.404;2023-04-09T03:37:46;1.70;99.90
18880;DHT22;9572;52.378;13.404;2023-04-09T03:40:13;1.60;99.90
18880;DHT22;9572;52.378;13.404;2023-04-09T03:42:41;1.60;99.90
18880;DHT22;9572;52.378;13.404;2023-04-09T03:45:10;1.60;99.90
18880;DHT22;9572;52.378;13.404;2023-04-09T03:47:37;1.60;99.90
18880;DHT22;9572;52.378;13.404;2023-04-09T03:50:04;1.50;99.90
18880;DHT22;9572;52.378;13.404;2023-04-09T03:52:31;1.50;99.90
18880;DHT22;9572;52.378;13.404;2023-04-09T03:54:58;1.50;99.90
18880;DHT22;9572;52.378;13.404;2023-04-09T03:57:25;1.50;99.90
18880;DHT22;9572;52.378;13.404;2023-04-09T03:59:52;1.60;99.90
18880;DHT22;9572;52.378;13.404;2023-04-09T04:02:20;1.60;99.90
18880;DHT22;9572;52.378;13.404;2023-04-09T04:04:47;1.60;99.90
18880;DHT22;9572;52.378;13.404;2023-04-09T04:07:14;1.60;99.90
18880;DHT22;9572;52.378;13.404;2023-04-09T04:09:41;1.50;99.90
18880;DHT22;9572;52.378;13.404;2023-04-09T04:12:08;1.50;99.90
18880;DHT22;9572;52.378;13.404;2023-04-09T04:14:34;1.40;99.90
18880;DHT22;9572;52.378;13.404;2023-04-09T04:17:01;1.30;99.90
18880;DHT22;9572;52.378;13.404;2023-04-09T04:19:30;1.30;99.90
18880;DHT22;9572;52.378;13.404;2023-04-09T04:21:57;1.20;99.90
18880;DHT22;9572;52.378;13.404;2023-04-09T04:24:23;1.20;99.90
18880;DHT22;9572;52.378;13.404;2023-04-09T04:26:50;1.20;99.90
18880;DHT22;9572;52.378;13.404;2023-04-09T04:29:17;1.10;99.90
18880;DHT22;9572;52.378;13.404;2023-04-09T04:31:44;1.10;99.90
18880;DHT22;9572;52.378;13.404;2023-04-09T04:34:11;1.10;99.90
18880;DHT22;9572;52.378;13.404;2023-04-09T04:36:39;1.20;99.90
18880;DHT22;9572;52.378;13.404;2023-04-09T04:39:06;1.20;99.90
18880;DHT22;9572;52.378;13.404;2023-04-09T04:41:33;1.20;99.90
18880;DHT22;9572;52.378;13.404;2023-04-09T04:44:00;1.20;99.90
18880;DHT22;9572;52.378;13.404;2023-04-09T04:46:27;1.20;99.90
18880;DHT22;9572;52.378;13.404;2023-04-09T04:48:53;1.30;99.90
18880;DHT22;9572;52.378;13.404;2023-04-09T04:51:20;1.30;99.90
18880;DHT22;9572;52.378;13.404;2023-04-09T04:53:49;1.40;99.90
18880;DHT22;9572;52.378;13.404;2023-04-09T04:56:16;1.50;99.90
18880;DHT22;9572;52.378;13.404;2023-04-09T04:58:42;1.50;99.90
18880;DHT22;9572;52.378;13.404;2023-04-09T05:01:09;1.50;99.90
18880;DHT22;9572;52.378;13.404;2023-04-09T05:03:36;1.50;99.90
18880;DHT22;9572;52.378;13.404;2023-04-09T05:06:03;1.50;99.90
18880;DHT22;9572;52.378;13.404;2023-04-09T05:08:30;1.50;99.90
18880;DHT22;9572;52.378;13.404;2023-04-09T05:10:58;1.60;99.90
18880;DHT22;9572;52.378;13.404;2023-04-09T05:13:25;1.50;99.90
18880;DHT22;9572;52.378;13.404;2023-04-09T05:15:52;1.70;99.90
18880;DHT22;9572;52.378;13.404;2023-04-09T05:18:19;1.70;99.90
18880;DHT22;9572;52.378;13.404;2023-04-09T05:20:46;1.80;99.90
18880;DHT22;9572;52.378;13.404;2023-04-09T05:23:13;1.80;99.90
18880;DHT22;9572;52.378;13.404;2023-04-09T05:25:40;1.90;99.90
18880;DHT22;9572;52.378;13.404;2023-04-09T05:28:08;2.00;99.90
18880;DHT22;9572;52.378;13.404;2023-04-09T05:30:36;2.20;99.90
18880;DHT22;9572;52.378;13.404;2023-04-09T05:33:03;2.20;99.90
18880;DHT22;9572;52.378;13.404;2023-04-09T05:35:30;2.20;99.90
18880;DHT22;9572;52.378;13.404;2023-04-09T05:37:57;2.30;99.90
18880;DHT22;9572;52.378;13.404;2023-04-09T05:40:23;2.40;99.90
18880;DHT22;9572;52.378;13.404;2023-04-09T05:42:50;2.70;99.90
18880;DHT22;9572;52.378;13.404;2023-04-09T05:45:18;2.90;99.90
18880;DHT22;9572;52.378;13.404;2023-04-09T05:47:45;3.10;99.90
18880;DHT22;9572;52.378;13.404;2023-04-09T05:50:13;3.30;99.90
18880;DHT22;9572;52.378;13.404;2023-04-09T05:52:40;3.50;99.90
18880;DHT22;9572;52.378;13.404;2023-04-09T05:55:07;3.80;99.90
18880;DHT22;9572;52.378;13.404;2023-04-09T05:57:35;4.00;99.90
18880;DHT22;9572;52.378;13.404;2023-04-09T06:00:02;4.30;99.90
18880;DHT22;9572;52.378;13.404;2023-04-09T06:02:30;4.30;99.90
18880;DHT22;9572;52.378;13.404;2023-04-09T06:04:57;4.40;99.90
18880;DHT22;9572;52.378;13.404;2023-04-09T06:07:24;4.40;99.90
18880;DHT22;9572;52.378;13.404;2023-04-09T06:09:51;4.70;99.90
18880;DHT22;9572;52.378;13.404;2023-04-09T06:12:17;4.90;99.90
18880;DHT22;9572;52.378;13.404;2023-04-09T06:14:46;5.20;99.90
18880;DHT22;9572;52.378;13.404;2023-04-09T06:17:13;5.20;99.90
18880;DHT22;9572;52.378;13.404;2023-04-09T06:19:42;5.50;99.90
18880;DHT22;9572;52.378;13.404;2023-04-09T06:22:09;5.70;99.90
18880;DHT22;9572;52.378;13.404;2023-04-09T06:24:36;5.90;99.90
18880;DHT22;9572;52.378;13.404;2023-04-09T06:27:03;5.80;99.90
18880;DHT22;9572;52.378;13.404;2023-04-09T06:29:30;5.90;99.90
18880;DHT22;9572;52.378;13.404;2023-04-09T06:31:57;6.10;99.90
18880;DHT22;9572;52.378;13.404;2023-04-09T06:34:24;6.30;99.90
18880;DHT22;9572;52.378;13.404;2023-04-09T06:36:52;6.40;99.90
18880;DHT22;9572;52.378;13.404;2023-04-09T06:39:19;6.40;99.90
18880;DHT22;9572;52.378;13.404;2023-04-09T06:41:46;6.60;99.90
18880;DHT22;9572;52.378;13.404;2023-04-09T06:44:13;6.70;99.90
18880;DHT22;9572;52.378;13.404;2023-04-09T06:46:40;7.00;99.90
18880;DHT22;9572;52.378;13.404;2023-04-09T06:49:07;7.10;99.90
18880;DHT22;9572;52.378;13.404;2023-04-09T06:51:34;7.20;99.90
18880;DHT22;9572;52.378;13.404;2023-04-09T06:54:02;7.30;99.90
18880;DHT22;9572;52.378;13.404;2023-04-09T06:56:29;7.20;99.90
18880;DHT22;9572;52.378;13.404;2023-04-09T06:58:56;7.20;99.90
18880;DHT22;9572;52.378;13.404;2023-04-09T07:01:24;7.20;99.90
18880;DHT22;9572;52.378;13.404;2023-04-09T07:03:51;7.00;99.90
18880;DHT22;9572;52.378;13.404;2023-04-09T07:06:18;7.00;99.90
18880;DHT22;9572;52.378;13.404;2023-04-09T07:08:45;6.90;99.90
18880;DHT22;9572;52.378;13.404;2023-04-09T07:11:13;6.80;99.90
18880;DHT22;9572;52.378;13.404;2023-04-09T07:13:41;6.90;99.90
18880;DHT22;9572;52.378;13.404;2023-04-09T07:16:08;6.90;99.90
18880;DHT22;9572;52.378;13.404;2023-04-09T07:18:35;7.00;99.90
18880;DHT22;9572;52.378;13.404;2023-04-09T07:21:02;7.10;99.90
18880;DHT22;9572;52.378;13.404;2023-04-09T07:23:29;7.30;99.90
18880;DHT22;9572;52.378;13.404;2023-04-09T07:25:56;7.40;99.90
18880;DHT22;9572;52.378;13.404;2023-04-09T07:28:24;7.40;99.90
18880;DHT22;9572;52.378;13.404;2023-04-09T07:30:51;7.60;99.90
18880;DHT22;9572;52.378;13.404;2023-04-09T07:33:18;7.80;99.90
18880;DHT22;9572;52.378;13.404;2023-04-09T07:35:45;7.80;99.90
18880;DHT22;9572;52.378;13.404;2023-04-09T07:38:12;7.80;99.90
18880;DHT22;9572;52.378;13.404;2023-04-09T07:40:39;7.90;99.90
18880;DHT22;9572;52.378;13.404;2023-04-09T07:43:06;8.00;99.90
18880;DHT22;9572;52.378;13.404;2023-04-09T07:45:34;8.10;99.90
18880;DHT22;9572;52.378;13.404;2023-04-09T07:48:01;8.40;99.90
18880;DHT22;9572;52.378;13.404;2023-04-09T07:50:29;8.60;99.90
18880;DHT22;9572;52.378;13.404;2023-04-09T07:52:55;8.90;99.90
18880;DHT22;9572;52.378;13.404;2023-04-09T07:55:22;9.10;99.90
18880;DHT22;9572;52.378;13.404;2023-04-09T07:57:49;9.30;99.90
18880;DHT22;9572;52.378;13.404;2023-04-09T08:00:17;9.70;99.90
18880;DHT22;9572;52.378;13.404;2023-04-09T08:02:45;9.70;99.90
18880;DHT22;9572;52.378;13.404;2023-04-09T08:05:12;9.70;99.90
18880;DHT22;9572;52.378;13.404;2023-04-09T08:07:39;9.70;99.90
18880;DHT22;9572;52.378;13.404;2023-04-09T08:10:07;9.70;99.90
18880;DHT22;9572;52.378;13.404;2023-04-09T08:12:39;9.90;99.90
18880;DHT22;9572;52.378;13.404;2023-04-09T08:15:08;10.20;99.90
18880;DHT22;9572;52.378;13.404;2023-04-09T08:17:35;10.20;99.90
18880;DHT22;9572;52.378;13.404;2023-04-09T08:20:04;10.30;99.90
18880;DHT22;9572;52.378;13.404;2023-04-09T08:22:32;10.40;99.90
18880;DHT22;9572;52.378;13.404;2023-04-09T08:24:59;10.40;99.90
18880;DHT22;9572;52.378;13.404;2023-04-09T08:27:26;10.40;99.90
18880;DHT22;9572;52.378;13.404;2023-04-09T08:29:52;10.30;99.90
18880;DHT22;9572;52.378;13.404;2023-04-09T08:32:19;10.20;99.90
18880;DHT22;9572;52.378;13.404;2023-04-09T08:34:47;10.20;99.90
18880;DHT22;9572;52.378;13.404;2023-04-09T08:37:15;10.00;99.90
18880;DHT22;9572;52.378;13.404;2023-04-09T08:39:42;9.80;99.90
18880;DHT22;9572;52.378;13.404;2023-04-09T08:42:09;10.00;99.90
18880;DHT22;9572;52.378;13.404;2023-04-09T08:44:37;10.30;99.90
18880;DHT22;9572;52.378;13.404;2023-04-09T08:47:07;10.40;99.90
18880;DHT22;9572;52.378;13.404;2023-04-09T08:49:37;10.80;99.90
18880;DHT22;9572;52.378;13.404;2023-04-09T08:52:04;11.30;99.90
18880;DHT22;9572;52.378;13.404;2023-04-09T08:54:33;11.70;99.90
18880;DHT22;9572;52.378;13.404;2023-04-09T08:57:03;12.20;99.90
18880;DHT22;9572;52.378;13.404;2023-04-09T08:59:30;12.40;99.90
18880;DHT22;9572;52.378;13.404;2023-04-09T09:02:08;12.40;99.90
18880;DHT22;9572;52.378;13.404;2023-04-09T09:04:45;12.40;99.90
18880;DHT22;9572;52.378;13.404;2023-04-09T09:07:12;12.60;99.90
18880;DHT22;9572;52.378;13.404;2023-04-09T09:09:54;12.70;99.90
18880;DHT22;9572;52.378;13.404;2023-04-09T09:12:43;12.40;99.90
18880;DHT22;9572;52.378;13.404;2023-04-09T09:15:24;12.20;99.90
18880;DHT22;9572;52.378;13.404;2023-04-09T09:17:54;12.30;99.90
18880;DHT22;9572;52.378;13.404;2023-04-09T09:20:22;12.40;99.90
18880;DHT22;9572;52.378;13.404;2023-04-09T09:22:50;12.60;99.90
18880;DHT22;9572;52.378;13.404;2023-04-09T09:25:19;13.10;99.90
18880;DHT22;9572;52.378;13.404;2023-04-09T09:27:47;13.40;99.90
18880;DHT22;9572;52.378;13.404;2023-04-09T09:30:20;13.30;99.90
18880;DHT22;9572;52.378;13.404;2023-04-09T09:32:51;13.20;99.90
18880;DHT22;9572;52.378;13.404;2023-04-09T09:35:18;13.00;99.90
18880;DHT22;9572;52.378;13.404;2023-04-09T09:37:45;13.00;99.90
18880;DHT22;9572;52.378;13.404;2023-04-09T09:40:26;13.00;99.90
18880;DHT22;9572;52.378;13.404;2023-04-09T09:42:54;13.10;99.90
18880;DHT22;9572;52.378;13.404;2023-04-09T09:45:23;13.00;99.90
18880;DHT22;9572;52.378;13.404;2023-04-09T09:47:51;13.20;99.90
18880;DHT22;9572;52.378;13.404;2023-04-09T09:50:19;13.60;99.90
18880;DHT22;9572;52.378;13.404;2023-04-09T09:52:50;14.00;99.90
18880;DHT22;9572;52.378;13.404;2023-04-09T09:55:20;14.30;99.90
18880;DHT22;9572;52.378;13.404;2023-04-09T09:57:51;14.30;99.90
18880;DHT22;9572;52.378;13.404;2023-04-09T10:00:19;14.60;99.90
18880;DHT22;9572;52.378;13.404;2023-04-09T10:02:54;14.90;99.90
18880;DHT22;9572;52.378;13.404;2023-04-09T10:05:22;14.90;99.90
18880;DHT22;9572;52.378;13.404;2023-04-09T10:07:53;15.30;99.90
18880;DHT22;9572;52.378;13.404;2023-04-09T10:10:21;15.00;99.90
18880;DHT22;9572;52.378;13.404;2023-04-09T10:12:50;15.30;99.90
18880;DHT22;9572;52.378;13.404;2023-04-09T10:15:17;15.70;99.90
18880;DHT22;9572;52.378;13.404;2023-04-09T10:17:44;16.10;99.90
18880;DHT22;9572;52.378;13.404;2023-04-09T10:20:17;16.60;99.90
18880;DHT22;9572;52.378;13.404;2023-04-09T10:22:47;16.80;99.90
18880;DHT22;9572;52.378;13.404;2023-04-09T10:25:16;17.00;99.90
18880;DHT22;9572;52.378;13.404;2023-04-09T10:27:43;17.50;99.90
18880;DHT22;9572;52.378;13.404;2023-04-09T10:30:30;17.10;99.90
18880;DHT22;9572;52.378;13.404;2023-04-09T10:33:07;16.80;99.90
18880;DHT22;9572;52.378;13.404;2023-04-09T10:35:35;16.50;99.90
18880;DHT22;9572;52.378;13.404;2023-04-09T10:38:01;16.60;99.90
18880;DHT22;9572;52.378;13.404;2023-04-09T10:40:29;16.90;99.90
18880;DHT22;9572;52.378;13.404;2023-04-09T10:42:57;17.50;99.90
18880;DHT22;9572;52.378;13.404;2023-04-09T10:45:38;18.10;99.90
18880;DHT22;9572;52.378;13.404;2023-04-09T10:48:10;17.50;99.90
18880;DHT22;9572;52.378;13.404;2023-04-09T10:50:41;17.20;99.90
18880;DHT22;9572;52.378;13.404;2023-04-09T10:53:20;17.50;99.90
18880;DHT22;9572;52.378;13.404;2023-04-09T10:55:48;17.30;99.90
18880;DHT22;9572;52.378;13.404;2023-04-09T10:58:15;17.30;99.90
18880;DHT22;9572;52.378;13.404;2023-04-09T11:00:44;17.50;99.90
18880;DHT22;9572;52.378;13.404;2023-04-09T11:03:18;18.10;99.90
18880;DHT22;9572;52.378;13.404;2023-04-09T11:05:47;17.90;99.90
18880;DHT22;9572;52.378;13.404;2023-04-09T11:08:17;17.40;99.90
18880;DHT22;9572;52.378;13.404;2023-04-09T11:10:44;17.20;99.90
18880;DHT22;9572;52.378;13.404;2023-04-09T11:13:13;17.30;99.90
18880;DHT22;9572;52.378;13.404;2023-04-09T11:15:40;17.10;99.90
18880;DHT22;9572;52.378;13.404;2023-04-09T11:18:08;17.60;99.90
18880;DHT22;9572;52.378;13.404;2023-04-09T11:20:39;17.90;99.90
18880;DHT22;9572;52.378;13.404;2023-04-09T11:23:06;18.00;99.90
18880;DHT22;9572;52.378;13.404;2023-04-09T11:25:33;18.20;99.90
18880;DHT22;9572;52.378;13.404;2023-04-09T11:28:02;18.10;99.90
18880;DHT22;9572;52.378;13.404;2023-04-09T11:30:29;17.90;99.90
18880;DHT22;9572;52.378;13.404;2023-04-09T11:32:59;18.30;99.90
18880;DHT22;9572;52.378;13.404;2023-04-09T11:35:27;18.10;99.90
18880;DHT22;9572;52.378;13.404;2023-04-09T11:37:54;18.30;99.90
18880;DHT22;9572;52.378;13.404;2023-04-09T11:40:22;17.70;99.90
18880;DHT22;9572;52.378;13.404;2023-04-09T11:42:50;17.60;99.90
18880;DHT22;9572;52.378;13.404;2023-04-09T11:45:18;17.50;99.90
18880;DHT22;9572;52.378;13.404;2023-04-09T11:47:46;17.60;99.90
18880;DHT22;9572;52.378;13.404;2023-04-09T11:50:13;17.00;99.90
18880;DHT22;9572;52.378;13.404;2023-04-09T11:52:43;17.20;99.90
18880;DHT22;9572;52.378;13.404;2023-04-09T11:55:11;17.20;99.90
18880;DHT22;9572;52.378;13.404;2023-04-09T11:57:39;17.40;99.90
18880;DHT22;9572;52.378;13.404;2023-04-09T12:00:09;16.90;99.90
18880;DHT22;9572;52.378;13.404;2023-04-09T12:02:39;16.80;99.90
18880;DHT22;9572;52.378;13.404;2023-04-09T12:05:08;16.90;99.90
18880;DHT22;9572;52.378;13.404;2023-04-09T12:07:36;16.70;99.90
18880;DHT22;9572;52.378;13.404;2023-04-09T12:10:06;16.30;99.90
18880;DHT22;9572;52.378;13.404;2023-04-09T12:12:41;16.50;99.90
18880;DHT22;9572;52.378;13.404;2023-04-09T12:15:18;16.40;99.90
18880;DHT22;9572;52.378;13.404;2023-04-09T12:17:50;16.80;99.90
18880;DHT22;9572;52.378;13.404;2023-04-09T12:20:31;16.90;99.90
18880;DHT22;9572;52.378;13.404;2023-04-09T12:22:59;17.00;99.90
18880;DHT22;9572;52.378;13.404;2023-04-09T12:25:29;17.20;99.90
18880;DHT22;9572;52.378;13.404;2023-04-09T12:27:57;17.10;99.90
18880;DHT22;9572;52.378;13.404;2023-04-09T12:30:24;16.70;99.90
18880;DHT22;9572;52.378;13.404;2023-04-09T12:32:51;16.70;99.90
18880;DHT22;9572;52.378;13.404;2023-04-09T12:35:19;16.70;99.90
18880;DHT22;9572;52.378;13.404;2023-04-09T12:37:46;16.70;99.90
18880;DHT22;9572;52.378;13.404;2023-04-09T12:40:13;16.80;99.90
18880;DHT22;9572;52.378;13.404;2023-04-09T12:42:41;16.80;99.90
18880;DHT22;9572;52.378;13.404;2023-04-09T12:45:10;16.60;99.90
18880;DHT22;9572;52.378;13.404;2023-04-09T12:47:37;16.20;99.90
18880;DHT22;9572;52.378;13.404;2023-04-09T12:50:06;16.30;99.90
18880;DHT22;9572;52.378;13.404;2023-04-09T12:52:33;16.40;99.90
18880;DHT22;9572;52.378;13.404;2023-04-09T12:55:01;16.40;99.90
18880;DHT22;9572;52.378;13.404;2023-04-09T12:57:29;16.60;99.90
18880;DHT22;9572;52.378;13.404;2023-04-09T12:59:57;16.50;99.90
18880;DHT22;9572;52.378;13.404;2023-04-09T13:02:24;16.40;99.90
18880;DHT22;9572;52.378;13.404;2023-04-09T13:04:51;16.50;99.90
18880;DHT22;9572;52.378;13.404;2023-04-09T13:07:18;16.70;99.90
18880;DHT22;9572;52.378;13.404;2023-04-09T13:09:46;16.70;99.90
18880;DHT22;9572;52.378;13.404;2023-04-09T13:12:15;16.70;99.90
18880;DHT22;9572;52.378;13.404;2023-04-09T13:14:42;16.30;99.90
18880;DHT22;9572;52.378;13.404;2023-04-09T13:17:11;16.40;99.90
18880;DHT22;9572;52.378;13.404;2023-04-09T13:19:38;16.50;99.90
18880;DHT22;9572;52.378;13.404;2023-04-09T13:22:05;16.50;99.90
18880;DHT22;9572;52.378;13.404;2023-04-09T13:24:33;16.40;99.90
18880;DHT22;9572;52.378;13.404;2023-04-09T13:27:00;16.00;99.90
18880;DHT22;9572;52.378;13.404;2023-04-09T13:29:27;16.00;99.90
18880;DHT22;9572;52.378;13.404;2023-04-09T13:31:54;15.90;99.90
18880;DHT22;9572;52.378;13.404;2023-04-09T13:34:24;16.00;99.90
18880;DHT22;9572;52.378;13.404;2023-04-09T13:36:51;16.00;99.90
18880;DHT22;9572;52.378;13.404;2023-04-09T13:39:18;16.30;99.90
18880;DHT22;9572;52.378;13.404;2023-04-09T13:41:45;16.40;99.90
18880;DHT22;9572;52.378;13.404;2023-04-09T13:44:12;16.40;99.90
18880;DHT22;9572;52.378;13.404;2023-04-09T13:46:38;16.30;99.90
18880;DHT22;9572;52.378;13.404;2023-04-09T13:49:05;16.00;99.90
18880;DHT22;9572;52.378;13.404;2023-04-09T13:51:34;16.00;99.90
18880;DHT22;9572;52.378;13.404;2023-04-09T13:54:01;16.00;99.90
18880;DHT22;9572;52.378;13.404;2023-04-09T13:56:28;15.80;99.90
18880;DHT22;9572;52.378;13.404;2023-04-09T13:58:55;16.00;99.90
18880;DHT22;9572;52.378;13.404;2023-04-09T14:01:22;15.80;99.90
18880;DHT22;9572;52.378;13.404;2023-04-09T14:03:50;16.10;99.90
18880;DHT22;9572;52.378;13.404;2023-04-09T14:06:17;16.20;99.90
18880;DHT22;9572;52.378;13.404;2023-04-09T14:08:45;16.10;99.90
18880;DHT22;9572;52.378;13.404;2023-04-09T14:11:12;16.30;99.90
18880;DHT22;9572;52.378;13.404;2023-04-09T14:13:41;16.10;99.90
18880;DHT22;9572;52.378;13.404;2023-04-09T14:16:08;16.00;99.90
18880;DHT22;9572;52.378;13.404;2023-04-09T14:18:35;16.10;99.90
18880;DHT22;9572;52.378;13.404;2023-04-09T14:21:04;16.20;99.90
18880;DHT22;9572;52.378;13.404;2023-04-09T14:23:31;16.60;99.90
18880;DHT22;9572;52.378;13.404;2023-04-09T14:26:00;16.70;99.90
18880;DHT22;9572;52.378;13.404;2023-04-09T14:28:27;16.80;99.90
18880;DHT22;9572;52.378;13.404;2023-04-09T14:30:54;16.90;99.90
18880;DHT22;9572;52.378;13.404;2023-04-09T14:33:21;17.00;99.90
18880;DHT22;9572;52.378;13.404;2023-04-09T14:35:48;17.10;99.90
18880;DHT22;9572;52.378;13.404;2023-04-09T14:38:15;17.00;99.90
18880;DHT22;9572;52.378;13.404;2023-04-09T14:40:42;16.90;99.90
18880;DHT22;9572;52.378;13.404;2023-04-09T14:43:10;16.90;99.90
18880;DHT22;9572;52.378;13.404;2023-04-09T14:45:37;16.90;99.90
18880;DHT22;9572;52.378;13.404;2023-04-09T14:48:04;16.80;99.90
18880;DHT22;9572;52.378;13.404;2023-04-09T14:50:31;16.70;99.90
18880;DHT22;9572;52.378;13.404;2023-04-09T14:52:58;16.60;99.90
18880;DHT22;9572;52.378;13.404;2023-04-09T14:55:25;16.50;99.90
18880;DHT22;9572;52.378;13.404;2023-04-09T14:57:52;16.30;99.90
18880;DHT22;9572;52.378;13.404;2023-04-09T15:00:21;15.90;99.90
18880;DHT22;9572;52.378;13.404;2023-04-09T15:02:48;16.00;99.90
18880;DHT22;9572;52.378;13.404;2023-04-09T15:05:14;16.00;99.90
18880;DHT22;9572;52.378;13.404;2023-04-09T15:07:41;15.50;99.90
18880;DHT22;9572;52.378;13.404;2023-04-09T15:10:09;15.30;99.90
18880;DHT22;9572;52.378;13.404;2023-04-09T15:12:36;15.20;99.90
18880;DHT22;9572;52.378;13.404;2023-04-09T15:15:05;15.40;99.90
18880;DHT22;9572;52.378;13.404;2023-04-09T15:17:34;15.50;99.90
18880;DHT22;9572;52.378;13.404;2023-04-09T15:20:01;15.20;99.90
18880;DHT22;9572;52.378;13.404;2023-04-09T15:22:28;15.10;99.90
18880;DHT22;9572;52.378;13.404;2023-04-09T15:24:55;15.20;99.90
18880;DHT22;9572;52.378;13.404;2023-04-09T15:27:22;15.20;99.90
18880;DHT22;9572;52.378;13.404;2023-04-09T15:29:49;15.10;99.90
18880;DHT22;9572;52.378;13.404;2023-04-09T15:32:16;15.00;99.90
18880;DHT22;9572;52.378;13.404;2023-04-09T15:34:44;14.70;99.90
18880;DHT22;9572;52.378;13.404;2023-04-09T15:37:11;14.80;99.90
18880;DHT22;9572;52.378;13.404;2023-04-09T15:39:38;14.80;99.90
18880;DHT22;9572;52.378;13.404;2023-04-09T15:42:05;14.90;99.90
18880;DHT22;9572;52.378;13.404;2023-04-09T15:44:32;15.00;99.90
18880;DHT22;9572;52.378;13.404;2023-04-09T15:46:58;14.80;99.90